Time;durP1;ratioP1;P1;durP2;ratioP2;P2;SDS_P1;SDS_P2;PMS_P1;PMS_P2;Temp;Humidity;BMP_temperature;BMP_pressure;BME280_temperature;BME280_humidity;BME280_pressure;Samples;Min_cycle;Max_cycle;Signal;HPM_P1;HPM_P2
2023/10/02 07:23:23;;;;;;;16.75;11.75;;;;;;;-145.79;92.52;77568.03;5271509;28;20362;-68
2023/10/02 07:25:54;;;;;;;20.05;11.93;;;;;;;-145.79;92.18;77559.56;5276504;27;20028;-68
2023/10/02 07:28:25;;;;;;;16.65;11.48;;;;;;;-145.79;91.95;77555.31;5275276;27;20035;-68
2023/10/02 07:30:59;;;;;;;15.68;11.48;;;;;;;-145.79;91.79;77538.38;5276283;28;20024;-68
2023/10/02 07:33:30;;;;;;;17.85;11.82;;;;;;;-145.79;91.49;77534.13;5267510;28;20107;-69
2023/10/02 07:36:08;;;;;;;18.25;12.13;;;;;;;-145.79;91.57;77525.66;5273697;27;20474;-69
2023/10/02 07:38:42;;;;;;;18.67;12.02;;;;;;;-145.79;91.42;77525.66;5272359;27;20459;-68
2023/10/02 07:41:17;;;;;;;15.90;11.65;;;;;;;-145.79;91.46;77517.16;5275296;27;20036;-68
2023/10/02 07:43:48;;;;;;;17.65;11.93;;;;;;;-145.79;91.22;77510.81;5276061;27;20031;-68
2023/10/02 07:46:21;;;;;;;18.45;11.88;;;;;;;-145.79;91.03;77502.34;5276000;28;20475;-68
2023/10/02 07:49:00;;;;;;;16.38;11.73;;;;;;;-145.79;90.97;77500.22;5275328;27;20044;-68
2023/10/02 07:51:38;;;;;;;17.65;12.27;;;;;;;-145.79;90.76;77500.22;5275570;28;20029;-68
2023/10/02 07:54:13;;;;;;;19.70;12.88;;;;;;;-145.79;90.69;77491.75;5270556;27;20025;-67
2023/10/02 07:56:47;;;;;;;19.33;13.32;;;;;;;-145.79;90.75;77485.38;5273427;28;20452;-68
2023/10/02 07:59:18;;;;;;;18.20;11.93;;;;;;;-145.79;90.40;77479.03;5276030;27;20025;-66
2023/10/02 08:01:51;;;;;;;23.27;13.23;;;;;;;-145.79;90.21;77479.03;5275525;27;20029;-67
2023/10/02 08:04:45;;;;;;;17.67;11.93;;;;;;;-145.79;89.76;77481.13;5275124;27;20029;-68
2023/10/02 08:07:14;;;;;;;20.67;12.93;;;;;;;-145.79;89.97;77472.66;5268270;28;20395;-68
2023/10/02 08:09:52;;;;;;;18.10;12.30;;;;;;;-145.79;89.88;77468.41;5268295;28;20036;-68
2023/10/02 08:12:30;;;;;;;18.08;11.45;;;;;;;-145.79;89.75;77470.53;5275015;27;20028;-69
2023/10/02 08:15:25;;;;;;;17.70;12.77;;;;;;;-145.79;90.06;77479.03;5275731;27;20080;-69
2023/10/02 08:20:36;;;;;;;17.03;12.10;;;;;;;-145.79;89.82;77466.31;5275781;27;20154;-68
2023/10/02 08:23:22;;;;;;;19.35;12.52;;;;;;;-145.79;89.93;77453.59;5270487;27;20311;-69
2023/10/02 08:26:02;;;;;;;18.83;12.75;;;;;;;-145.79;90.14;77451.47;5275252;27;20108;-69
2023/10/02 08:28:37;;;;;;;17.40;11.70;;;;;;;-145.79;89.76;77438.75;5265091;28;20033;-68
2023/10/02 08:31:13;;;;;;;;;;;;;;;-145.79;89.03;77419.66;5275265;27;20033;-67
2023/10/02 08:33:45;;;;;;;18.95;13.07;;;;;;;-145.79;88.15;77421.78;5266643;28;19916;-68
2023/10/02 08:36:19;;;;;;;16.92;11.80;;;;;;;-145.79;87.93;77411.19;5261453;28;20028;-71
2023/10/02 08:38:51;;;;;;;16.15;12.25;;;;;;;-145.79;87.52;77402.72;5260276;28;20064;-69
2023/10/02 08:41:22;;;;;;;18.40;12.73;;;;;;;-145.79;87.48;77383.63;5261240;28;20060;-68
2023/10/02 08:43:54;;;;;;;17.60;12.65;;;;;;;-145.79;86.72;77373.03;5257567;27;20108;-68
2023/10/02 08:46:31;;;;;;;18.30;13.35;;;;;;;-145.79;87.18;77353.97;5255481;28;20025;-69
2023/10/02 08:49:03;;;;;;;21.35;14.25;;;;;;;-145.79;86.31;77347.59;5261176;28;20039;-69
2023/10/02 08:51:38;;;;;;;15.88;11.73;;;;;;;-145.79;85.95;77334.88;5260545;28;20081;-68
2023/10/02 08:54:10;;;;;;;19.10;12.73;;;;;;;-145.79;85.54;77328.53;5255449;27;20100;-68
2023/10/02 08:56:44;;;;;;;17.55;12.63;;;;;;;-145.79;85.21;77322.16;5258807;28;20125;-68
2023/10/02 08:59:26;;;;;;;18.67;13.13;;;;;;;-145.79;85.56;77305.22;5260461;28;20036;-68
2023/10/02 09:02:05;;;;;;;17.70;12.32;;;;;;;-145.79;85.58;77309.44;5252894;27;20080;-68
2023/10/02 09:04:36;;;;;;;18.00;11.88;;;;;;;-145.79;85.75;77305.22;5256981;28;20029;-68
2023/10/02 09:08:01;;;;;;;19.83;13.07;;;;;;;-145.79;85.78;77296.72;5259798;28;20033;-68
2023/10/02 09:10:39;;;;;;;19.27;13.10;;;;;;;-145.79;85.76;77294.59;5255778;28;20097;-68
2023/10/02 09:13:16;;;;;;;16.67;11.32;;;;;;;-145.79;85.39;77292.50;5252336;28;20039;-68
2023/10/02 09:15:52;;;;;;;18.15;14.18;;;;;;;-145.79;85.43;77294.59;5256659;28;20040;-69
2023/10/02 09:18:58;;;;;;;18.48;12.48;;;;;;;-145.79;86.06;77294.59;5259882;27;20029;-68
2023/10/02 09:21:46;;;;;;;17.02;11.05;;;;;;;-145.79;85.70;77286.13;5259538;28;20110;-69
2023/10/02 09:24:20;;;;;;;18.38;12.70;;;;;;;-145.79;85.54;77284.00;5255839;28;20109;-68
2023/10/02 09:26:57;;;;;;;19.50;12.65;;;;;;;-145.79;85.65;77279.78;5260162;27;20519;-68
2023/10/02 09:29:30;;;;;;;18.77;12.05;;;;;;;-145.79;85.77;77277.66;5249620;28;20462;-68
2023/10/02 09:32:03;;;;;;;19.52;12.88;;;;;;;-145.79;85.90;77284.00;5253193;28;20036;-69
2023/10/02 09:34:35;;;;;;;18.73;13.50;;;;;;;-145.79;86.50;77275.53;5264335;28;20475;-68
2023/10/02 09:37:13;;;;;;;19.35;13.02;;;;;;;-145.79;86.54;77279.78;5253387;28;20073;-68
2023/10/02 09:39:44;;;;;;;16.83;12.18;;;;;;;-145.79;86.15;77279.78;5260167;28;20499;-69
2023/10/02 09:42:18;;;;;;;21.73;13.15;;;;;;;-145.79;86.27;77281.91;5259307;28;20033;-69
2023/10/02 09:44:53;;;;;;;20.95;13.27;;;;;;;-145.79;86.53;77281.91;5258851;28;20025;-69
2023/10/02 09:47:26;;;;;;;59.88;53.85;;;;;;;-145.79;86.80;77279.78;5256604;28;20026;-69
2023/10/02 09:50:23;;;;;;;16.75;13.88;;;;;;;-145.79;87.49;77277.66;5259513;28;20428;-69
2023/10/02 09:53:09;;;;;;;16.77;12.75;;;;;;;-145.79;87.01;77256.47;5251896;28;20025;-69
2023/10/02 09:55:41;;;;;;;20.88;13.18;;;;;;;-145.79;86.68;77233.16;5248365;27;20029;-69
2023/10/02 09:58:38;;;;;;;20.17;13.68;;;;;;;-145.79;86.26;77209.81;5315876;27;20498;-70
2023/10/02 10:03:59;;;;;;;17.02;13.70;;;;;;;-145.79;84.68;77184.41;5256472;27;20049;-70
2023/10/02 10:06:41;;;;;;;16.75;12.85;;;;;;;-145.79;84.05;77173.78;5257958;28;20054;-71
2023/10/02 10:14:54;;;;;;;17.45;13.57;;;;;;;-145.79;82.69;77133.53;5258646;28;20044;-67
2023/10/02 10:17:49;;;;;;;19.30;13.23;;;;;;;-145.79;81.83;77120.81;5255835;28;20454;-67
2023/10/02 10:20:22;;;;;;;17.63;12.48;;;;;;;-145.79;81.50;77112.31;5249358;28;20037;-66
2023/10/02 10:22:57;;;;;;;20.60;12.70;;;;;;;-145.79;81.25;77110.22;5254206;28;20049;-65
2023/10/02 10:25:35;;;;;;;19.40;13.45;;;;;;;-145.79;81.03;77103.84;5257566;28;20162;-65
2023/10/02 10:28:09;;;;;;;17.85;13.70;;;;;;;-145.79;80.75;77095.38;5247873;28;20056;-65
2023/10/02 10:35:52;;;;;;;17.40;12.63;;;;;;;-145.79;79.23;77084.78;5251672;28;20029;-65
2023/10/02 10:38:25;;;;;;;17.30;12.25;;;;;;;-145.79;79.11;77074.19;5257906;28;20287;-64
2023/10/02 10:41:00;;;;;;;18.90;13.05;;;;;;;-145.79;79.02;77063.59;5259235;27;20060;-65
2023/10/02 10:46:27;;;;;;;16.02;12.40;;;;;;;-145.79;79.51;77057.22;5252011;28;20033;-65
2023/10/02 10:49:10;;;;;;;17.83;11.68;;;;;;;-145.79;79.34;77055.09;5260283;27;20077;-65
2023/10/02 10:51:42;;;;;;;15.13;11.20;;;;;;;-145.79;79.41;77057.22;5251329;28;20032;-65
2023/10/02 10:54:27;;;;;;;18.40;13.15;;;;;;;-145.79;79.86;77057.22;5258852;27;20033;-66
2023/10/02 10:57:19;;;;;;;16.70;11.20;;;;;;;-145.79;79.62;77059.34;5248662;28;20360;-65
2023/10/02 11:00:23;;;;;;;18.65;13.85;;;;;;;-145.79;80.65;77050.88;5252391;28;20062;-65
2023/10/02 11:03:00;;;;;;;19.70;12.52;;;;;;;-145.79;80.47;77048.75;5252741;28;20029;-65
2023/10/02 11:05:34;;;;;;;17.48;13.05;;;;;;;-145.79;80.21;77044.50;5258232;28;20080;-65
2023/10/02 11:08:25;;;;;;;20.20;12.77;;;;;;;-145.79;80.33;77038.16;5250570;28;20036;-65
2023/10/02 11:11:18;;;;;;;16.77;12.65;;;;;;;-145.79;79.99;77025.44;5255829;28;20033;-65
2023/10/02 11:13:51;;;;;;;21.73;12.82;;;;;;;-145.79;79.63;77025.44;5257732;28;20097;-65
2023/10/02 11:16:36;;;;;;;18.58;12.77;;;;;;;-145.79;79.65;77019.06;5251326;27;20078;-66
2023/10/02 11:19:21;;;;;;;16.25;11.93;;;;;;;-145.79;79.58;77000.00;5256202;28;20021;-63
2023/10/02 11:22:14;;;;;;;16.87;12.23;;;;;;;-145.79;78.61;76989.41;5258103;28;20049;-63
2023/10/02 11:25:18;;;;;;;20.92;15.70;;;;;;;-145.79;77.92;76978.81;5258608;28;20072;-64
2023/10/02 11:27:58;;;;;;;16.33;12.07;;;;;;;-145.79;77.52;76963.97;5253214;28;20104;-64
2023/10/02 11:30:32;;;;;;;21.13;12.38;;;;;;;-145.79;77.81;76944.91;5250312;28;20025;-63
2023/10/02 11:33:04;;;;;;;18.67;12.13;;;;;;;-145.79;77.64;76921.59;5256777;28;20021;-63
2023/10/02 11:35:38;;;;;;;18.30;12.65;;;;;;;-145.79;75.78;76917.34;5252675;28;20040;-64
2023/10/02 11:38:10;;;;;;;16.73;11.80;;;;;;;-145.79;76.40;76887.66;5251975;28;20025;-64
2023/10/02 11:40:44;;;;;;;15.57;11.20;;;;;;;-145.79;76.36;76881.31;5252947;28;20032;-65
2023/10/02 11:43:15;;;;;;;18.45;11.27;;;;;;;-145.79;75.09;76868.59;5258186;28;20476;-65
2023/10/02 11:45:47;;;;;;;17.83;14.20;;;;;;;-145.79;72.72;76847.41;5258344;28;20029;-65
2023/10/02 11:48:19;;;;;;;21.17;14.63;;;;;;;-145.79;72.98;76851.63;5257919;28;20035;-66
2023/10/02 11:50:51;;;;;;;17.25;11.45;;;;;;;-145.79;72.98;76841.03;5254723;28;20316;-66
2023/10/02 11:53:22;;;;;;;15.25;11.40;;;;;;;-145.79;72.47;76832.56;5257678;28;20110;-66
2023/10/02 11:55:54;;;;;;;16.55;12.07;;;;;;;-145.79;72.12;76834.69;5256965;28;20021;-65
2023/10/02 11:58:25;;;;;;;18.23;11.57;;;;;;;-145.79;72.68;76809.25;5258228;28;20089;-65
2023/10/02 12:00:57;;;;;;;15.65;11.40;;;;;;;-145.79;73.26;76811.38;5256072;28;20057;-66
2023/10/02 12:03:28;;;;;;;18.45;13.40;;;;;;;-145.79;73.45;76811.38;5248691;28;20071;-65
2023/10/02 12:06:00;;;;;;;16.70;11.95;;;;;;;-145.79;73.23;76813.50;5245662;28;20357;-65
2023/10/02 12:08:33;;;;;;;17.13;11.63;;;;;;;-145.79;73.48;76809.25;5248222;28;20028;-67
2023/10/02 12:11:08;;;;;;;14.63;11.15;;;;;;;-145.79;72.70;76817.72;5246438;28;20039;-65
2023/10/02 12:13:44;;;;;;;17.70;10.63;;;;;;;-145.79;72.39;76809.25;5258546;28;20034;-65
2023/10/02 12:16:21;;;;;;;16.23;10.68;;;;;;;-145.79;72.11;76809.25;5257526;28;20548;-65
2023/10/02 12:18:53;;;;;;;15.82;12.57;;;;;;;-145.79;72.78;76807.13;5260501;28;20102;-64
2023/10/02 12:21:24;;;;;;;17.70;10.73;;;;;;;-145.79;72.71;76811.38;5257123;28;20446;-64
2023/10/02 12:24:00;;;;;;;17.60;11.27;;;;;;;-145.79;72.77;76800.78;5252395;28;20037;-64
2023/10/02 12:26:32;;;;;;;15.00;10.88;;;;;;;-145.79;72.31;76800.78;5259105;28;20026;-64
2023/10/02 12:29:04;;;;;;;16.05;10.57;;;;;;;-145.79;72.83;76792.31;5260929;28;20547;-65
2023/10/02 12:31:38;;;;;;;17.40;11.55;;;;;;;-145.79;73.46;76792.31;5260190;28;20365;-65
2023/10/02 12:34:10;;;;;;;13.65;10.55;;;;;;;-145.79;73.24;76762.63;5254177;27;20519;-65
2023/10/02 12:36:42;;;;;;;17.05;12.15;;;;;;;-145.79;72.61;76766.88;5259966;28;20109;-65
2023/10/02 12:39:13;;;;;;;15.90;10.93;;;;;;;-145.79;72.36;76771.09;5260850;28;20021;-65
2023/10/02 12:41:44;;;;;;;15.15;12.20;;;;;;;-145.79;71.95;76749.91;5254095;28;20029;-65
2023/10/02 12:44:16;;;;;;;15.88;10.48;;;;;;;-145.79;71.63;76749.91;5256233;28;20024;-65
2023/10/02 12:46:50;;;;;;;12.82;10.25;;;;;;;-145.79;71.84;76745.69;5265672;27;20053;-65
2023/10/02 12:49:22;;;;;;;17.20;11.00;;;;;;;-145.79;71.57;76741.44;5277508;27;20129;-66
2023/10/02 12:51:54;;;;;;;14.70;11.60;;;;;;;-145.79;72.09;76735.06;5260186;27;20112;-66
2023/10/02 12:54:27;;;;;;;13.45;10.43;;;;;;;-145.79;71.52;76703.28;5257585;28;20017;-65
2023/10/02 12:56:59;;;;;;;14.65;11.00;;;;;;;-145.79;69.39;76692.69;5255274;28;20058;-65
2023/10/02 12:59:34;;;;;;;15.75;10.35;;;;;;;-145.79;69.42;76701.16;5255226;28;20037;-65
2023/10/02 13:02:07;;;;;;;13.13;10.02;;;;;;;-145.79;68.61;76696.94;5254099;28;20506;-66
2023/10/02 13:04:39;;;;;;;14.43;10.15;;;;;;;-145.79;67.43;76686.34;5259896;28;20111;-66
2023/10/02 13:07:13;;;;;;;12.25;9.75;;;;;;;-145.79;66.88;76682.09;5266521;27;20112;-65
2023/10/02 13:09:44;;;;;;;11.40;9.20;;;;;;;-145.79;67.49;76660.91;5256567;28;20025;-67
2023/10/02 13:12:16;;;;;;;14.00;10.82;;;;;;;-145.79;66.25;76646.06;5259630;28;20036;-66
2023/10/02 13:14:48;;;;;;;13.82;9.93;;;;;;;-145.79;64.32;76639.72;5260557;28;20033;-65
2023/10/02 13:17:19;;;;;;;15.00;11.50;;;;;;;-145.79;65.31;76633.34;5252982;28;20471;-65
2023/10/02 13:19:50;;;;;;;12.77;9.50;;;;;;;-145.79;64.84;76627.00;5254752;28;20098;-66
2023/10/02 13:22:23;;;;;;;15.48;10.25;;;;;;;-145.79;65.17;76635.47;5259808;28;20045;-66
2023/10/02 13:24:54;;;;;;;14.48;9.63;;;;;;;-145.79;64.84;76622.75;5247780;27;20530;-66
2023/10/02 13:27:25;;;;;;;14.93;10.93;;;;;;;-145.79;65.02;76618.53;5259295;28;20021;-66
2023/10/02 13:29:58;;;;;;;14.30;10.68;;;;;;;-145.79;65.28;76601.56;5254995;28;20032;-66
2023/10/02 13:32:29;;;;;;;13.73;11.18;;;;;;;-145.79;65.14;76588.84;5259184;27;20468;-66
2023/10/02 13:35:05;;;;;;;13.35;10.50;;;;;;;-145.79;64.46;76588.84;5256686;27;20070;-66
2023/10/02 13:37:38;;;;;;;16.00;11.48;;;;;;;-145.79;61.93;76588.84;5251931;28;20032;-67
2023/10/02 13:40:26;;;;;;;17.23;11.05;;;;;;;-145.79;62.08;76584.59;5257859;28;20036;-66
2023/10/02 13:42:58;;;;;;;14.98;10.38;;;;;;;-145.79;62.34;76584.59;5259841;28;20040;-66
2023/10/02 13:45:30;;;;;;;18.08;11.73;;;;;;;-145.79;62.69;76580.38;5260039;28;20025;-66
2023/10/02 13:48:04;;;;;;;16.10;12.35;;;;;;;-145.79;63.02;76569.78;5256835;27;20073;-66
2023/10/02 13:50:37;;;;;;;15.07;11.18;;;;;;;-145.79;62.97;76571.91;5251337;28;20026;-68
2023/10/02 13:53:09;;;;;;;15.30;12.45;;;;;;;-145.79;63.15;76571.91;5246421;28;20021;-67
2023/10/02 13:55:40;;;;;;;16.02;11.07;;;;;;;-145.79;62.99;76563.41;5257522;28;20025;-65
2023/10/02 13:58:11;;;;;;;16.35;11.52;;;;;;;-145.79;63.24;76552.81;5253156;27;20029;-65
2023/10/02 14:00:43;;;;;;;21.45;12.15;;;;;;;-145.79;63.50;76550.69;5249755;28;20021;-65
2023/10/02 14:03:15;;;;;;;15.20;11.07;;;;;;;-145.79;63.49;76546.47;5252649;28;20384;-65
2023/10/02 14:05:46;;;;;;;16.98;11.68;;;;;;;-145.79;63.49;76542.22;5257438;28;20025;-65
2023/10/02 14:08:17;;;;;;;16.17;11.88;;;;;;;-145.79;63.46;76538.00;5247601;28;20044;-65
2023/10/02 14:10:49;;;;;;;17.27;12.70;;;;;;;-145.79;63.31;76535.88;5256748;28;20033;-66
2023/10/02 14:13:20;;;;;;;15.18;11.95;;;;;;;-145.79;63.45;76538.00;5259637;27;20056;-66
2023/10/02 14:15:53;;;;;;;13.98;10.98;;;;;;;-145.79;63.14;76533.75;5250335;28;20032;-66
2023/10/02 14:18:24;;;;;;;17.30;12.30;;;;;;;-145.79;63.24;76533.75;5259494;28;20106;-66
2023/10/02 14:21:05;;;;;;;17.00;11.65;;;;;;;-145.79;63.36;76523.16;5259054;28;20029;-66
2023/10/02 14:23:37;;;;;;;14.00;10.35;;;;;;;-145.79;62.92;76518.91;5257921;28;20033;-67
2023/10/02 14:26:14;;;;;;;15.68;11.07;;;;;;;-145.79;63.10;76516.78;5257540;28;20028;-66
2023/10/02 14:28:46;;;;;;;15.90;11.50;;;;;;;-145.79;64.00;76514.69;5259142;28;20059;-66
2023/10/02 14:31:28;;;;;;;17.90;11.38;;;;;;;-145.79;64.44;76514.69;5250150;28;20056;-66
2023/10/02 14:34:00;;;;;;;16.08;12.23;;;;;;;-145.79;64.13;76506.19;5254884;28;20077;-66
2023/10/02 14:36:32;;;;;;;14.32;12.73;;;;;;;-145.79;65.07;76512.56;5252118;27;20502;-65
2023/10/02 14:39:04;;;;;;;14.60;10.90;;;;;;;-145.79;65.43;76516.78;5257284;28;20050;-63
2023/10/02 14:41:37;;;;;;;19.55;11.55;;;;;;;-145.79;64.49;76512.56;5256343;28;20032;-64
2023/10/02 14:44:10;;;;;;;18.85;12.32;;;;;;;-145.79;65.17;76504.09;5254076;28;20071;-65
2023/10/02 14:46:43;;;;;;;18.00;12.18;;;;;;;-145.79;65.55;76499.84;5258298;28;20028;-65
2023/10/02 14:49:15;;;;;;;17.13;11.40;;;;;;;-145.79;65.34;76499.84;5251813;27;20036;-64
2023/10/02 14:51:47;;;;;;;14.45;11.38;;;;;;;-145.79;66.07;76487.13;5249053;28;20029;-64
2023/10/02 14:54:18;;;;;;;15.63;11.95;;;;;;;-145.79;65.67;76487.13;5257434;28;20471;-65
2023/10/02 14:56:49;;;;;;;16.02;11.05;;;;;;;-145.79;65.36;76482.88;5247396;28;20028;-64
2023/10/02 14:59:21;;;;;;;17.40;11.93;;;;;;;-145.79;65.58;76465.94;5251277;28;20116;-64
2023/10/02 15:01:52;;;;;;;16.77;11.50;;;;;;;-145.79;65.39;76465.94;5258163;28;20028;-64
2023/10/02 15:04:25;;;;;;;16.80;12.80;;;;;;;-145.79;65.06;76461.69;5258045;27;20033;-64
2023/10/02 15:06:57;;;;;;;17.02;12.02;;;;;;;-145.79;65.39;76457.47;5258229;28;20028;-64
2023/10/02 15:09:29;;;;;;;15.15;11.57;;;;;;;-145.79;64.23;76455.34;5254551;28;20025;-64
2023/10/02 15:12:01;;;;;;;17.35;11.80;;;;;;;-145.79;63.98;76448.97;5256030;28;20025;-64
2023/10/02 15:14:36;;;;;;;15.18;12.30;;;;;;;-145.79;63.97;76440.50;5243379;28;20037;-64
2023/10/02 15:17:07;;;;;;;16.10;11.98;;;;;;;-145.79;64.19;76446.88;5257489;28;20029;-64
2023/10/02 15:19:38;;;;;;;16.02;10.88;;;;;;;-145.79;63.90;76438.38;5257674;27;20036;-65
2023/10/02 15:22:11;;;;;;;46.22;41.75;;;;;;;-145.79;64.66;76444.75;5254074;28;20120;-66
2023/10/02 15:24:42;;;;;;;21.88;14.30;;;;;;;-145.79;64.81;76436.28;5255019;28;20535;-67
2023/10/02 15:27:17;;;;;;;15.00;11.48;;;;;;;-145.79;64.41;76427.78;5256264;28;20112;-66
2023/10/02 15:29:49;;;;;;;17.77;12.15;;;;;;;-145.79;64.71;76434.16;5258357;28;20108;-66
2023/10/02 15:32:21;;;;;;;15.98;12.23;;;;;;;-145.79;64.92;76425.66;5256548;28;20085;-66
2023/10/02 15:34:52;;;;;;;16.02;11.93;;;;;;;-145.79;65.08;76432.03;5255213;28;20455;-67
2023/10/02 15:37:24;;;;;;;15.18;12.02;;;;;;;-145.79;65.74;76427.78;5258237;28;20487;-68
2023/10/02 15:39:55;;;;;;;16.95;12.02;;;;;;;-145.79;65.81;76432.03;5257442;28;20030;-67
2023/10/02 15:42:27;;;;;;;19.85;12.93;;;;;;;-145.79;65.66;76423.56;5258335;28;20105;-67
2023/10/02 15:44:58;;;;;;;17.98;14.50;;;;;;;-145.79;66.59;76423.56;5261284;28;20091;-67
2023/10/02 15:47:33;;;;;;;16.25;11.75;;;;;;;-145.79;66.41;76425.66;5260949;28;20539;-66
2023/10/02 15:50:07;;;;;;;17.98;12.85;;;;;;;-145.79;65.93;76432.03;5254934;28;20477;-67
2023/10/02 15:52:39;;;;;;;15.75;11.98;;;;;;;-145.79;65.98;76434.16;5260325;28;20036;-67
2023/10/02 15:55:12;;;;;;;16.20;12.18;;;;;;;-145.79;66.26;76427.78;5261091;27;20033;-67
2023/10/02 15:57:46;;;;;;;17.30;13.18;;;;;;;-145.79;66.50;76440.50;5261619;28;20536;-66
2023/10/02 16:00:25;;;;;;;16.10;12.95;;;;;;;-145.79;66.55;76446.88;5261738;28;20040;-67
2023/10/02 16:03:00;;;;;;;16.65;12.13;;;;;;;-145.79;66.45;76451.09;5254266;27;20041;-67
2023/10/02 16:05:33;;;;;;;;;;;;;;;-145.79;66.77;76448.97;5247471;28;20108;-66
2023/10/02 16:08:05;;;;;;;15.80;11.82;;;;;;;-145.79;67.18;76448.97;5253287;28;19920;-66
2023/10/02 16:10:36;;;;;;;15.63;12.60;;;;;;;-145.79;67.68;76455.34;5257973;28;20052;-67
2023/10/02 16:13:08;;;;;;;16.67;12.07;;;;;;;-145.79;67.75;76463.81;5261650;28;20058;-66
2023/10/02 16:15:39;;;;;;;17.25;12.93;;;;;;;-145.79;68.47;76461.69;5260505;28;20070;-66
2023/10/02 16:18:10;;;;;;;18.35;13.40;;;;;;;-145.79;68.09;76465.94;5261151;28;20089;-66
2023/10/02 16:20:42;;;;;;;18.15;13.35;;;;;;;-145.79;68.35;76461.69;5261510;28;20207;-66
2023/10/02 16:23:17;;;;;;;15.98;12.55;;;;;;;-145.79;68.44;76474.41;5256187;28;20053;-67
2023/10/02 16:25:48;;;;;;;16.73;12.35;;;;;;;-145.79;68.55;76474.41;5258365;28;20384;-67
2023/10/02 16:28:21;;;;;;;17.23;13.07;;;;;;;-145.79;69.17;76478.66;5261155;27;20032;-67
2023/10/02 16:30:52;;;;;;;17.23;12.73;;;;;;;-145.79;68.80;76480.78;5260210;28;20069;-67
2023/10/02 16:33:23;;;;;;;17.15;12.23;;;;;;;-145.79;69.09;76482.88;5260756;28;20021;-67
2023/10/02 16:35:56;;;;;;;18.75;11.95;;;;;;;-145.79;69.38;76487.13;5260425;28;20064;-66
2023/10/02 16:38:27;;;;;;;18.50;12.98;;;;;;;-145.79;70.12;76487.13;5260894;28;20485;-66
2023/10/02 16:40:59;;;;;;;15.98;12.68;;;;;;;-145.79;70.60;76501.97;5256000;28;20026;-66
2023/10/02 16:43:30;;;;;;;19.08;13.82;;;;;;;-145.79;70.93;76514.69;5258776;28;20021;-66
2023/10/02 16:46:02;;;;;;;18.17;14.13;;;;;;;-145.79;71.79;76525.28;5261096;28;20056;-66
2023/10/02 16:48:36;;;;;;;17.27;13.48;;;;;;;-145.79;72.97;76533.75;5260961;28;20108;-66
2023/10/02 16:51:11;;;;;;;19.17;13.93;;;;;;;-145.79;73.71;76531.63;5252179;28;20025;-67
2023/10/02 16:53:44;;;;;;;22.05;16.48;;;;;;;-145.79;73.77;76529.50;5252036;27;20037;-66
